Time;durP1;ratioP1;P1;durP2;ratioP2;P2;SDS_P1;SDS_P2;PMS_P1;PMS_P2;Temp;Humidity;BMP_temperature;BMP_pressure;BME280_temperature;BME280_humidity;BME280_pressure;Samples;Min_cycle;Max_cycle;Signal;HPM_P1;HPM_P2
2021/10/31 00:00:37;;;;;;;20.30;16.65;;;;;;;1.88;99.45;100943.39;1669403;84;21436;-59
2021/10/31 00:03:04;;;;;;;19.87;17.37;;;;;;;1.95;97.12;100944.36;1678881;83;21494;-59
2021/10/31 00:05:30;;;;;;;21.20;18.55;;;;;;;1.98;95.54;100940.92;1679185;84;21622;-59
2021/10/31 00:07:57;;;;;;;32.80;20.10;;;;;;;1.93;94.83;100933.95;1672510;84;21595;-59
2021/10/31 00:10:24;;;;;;;57.45;20.25;;;;;;;1.88;95.26;100936.91;1681258;84;22079;-59
2021/10/31 00:12:51;;;;;;;28.57;18.87;;;;;;;1.82;94.46;100932.08;1674056;84;21444;-60
2021/10/31 00:15:18;;;;;;;21.37;17.67;;;;;;;1.75;94.62;100932.41;1673714;84;21789;-60
2021/10/31 00:17:45;;;;;;;21.68;17.30;;;;;;;1.79;93.39;100926.44;1669952;83;21603;-59
2021/10/31 00:20:11;;;;;;;20.35;17.77;;;;;;;1.83;92.42;100929.91;1677989;84;21456;-59
2021/10/31 00:22:38;;;;;;;18.95;16.15;;;;;;;1.73;91.33;100924.63;1678028;84;21701;-60
2021/10/31 00:25:06;;;;;;;20.32;18.12;;;;;;;1.66;90.60;100927.98;1678870;84;21542;-60
2021/10/31 00:27:34;;;;;;;25.77;18.37;;;;;;;1.60;89.83;100922.72;1672719;84;21618;-60
2021/10/31 00:30:00;;;;;;;21.07;17.25;;;;;;;1.58;89.38;100923.09;1679458;84;21676;-60
2021/10/31 00:32:27;;;;;;;24.25;18.92;;;;;;;1.67;88.48;100926.25;1680131;84;21542;-60
2021/10/31 00:34:53;;;;;;;36.03;19.73;;;;;;;1.76;88.01;100917.31;1678914;84;21456;-60
2021/10/31 00:37:20;;;;;;;39.10;19.82;;;;;;;1.73;87.90;100917.25;1677150;84;21521;-60
2021/10/31 00:39:46;;;;;;;62.17;21.37;;;;;;;1.62;88.89;100916.23;1679587;84;21604;-60
2021/10/31 00:42:13;;;;;;;85.13;20.77;;;;;;;1.50;89.85;100910.45;1667536;84;21492;-60
2021/10/31 00:44:41;;;;;;;27.02;17.07;;;;;;;1.28;89.35;100901.48;1676574;84;21742;-59
2021/10/31 00:47:08;;;;;;;72.17;19.20;;;;;;;1.28;89.35;100901.48;1679429;84;21707;-60
2021/10/31 00:49:36;;;;;;;41.90;19.20;;;;;;;1.32;88.80;100900.71;1685401;84;21579;-59
2021/10/31 00:52:03;;;;;;;33.63;18.35;;;;;;;1.22;90.16;100898.81;1683284;84;21670;-59
2021/10/31 00:54:30;;;;;;;28.67;18.02;;;;;;;1.09;90.03;100899.03;1680936;84;20998;-60
2021/10/31 00:56:57;;;;;;;26.75;17.02;;;;;;;1.00;89.58;100906.66;1668734;84;21535;-60
2021/10/31 00:59:24;;;;;;;;;;;;;;;0.93;89.25;100902.67;1672364;84;21798;-59
2021/10/31 01:01:52;;;;;;;18.02;15.60;;;;;;;0.96;88.68;100906.62;1670672;84;20188;-59
2021/10/31 01:04:23;;;;;;;17.17;15.28;;;;;;;1.06;88.08;100906.78;1675034;84;21527;-60
2021/10/31 01:07:03;;;;;;;21.82;17.15;;;;;;;1.04;87.47;100894.23;1680448;84;21023;-60
2021/10/31 01:10:07;;;;;;;18.82;16.80;;;;;;;1.00;86.96;100899.78;1716896;82;21687;-60
2021/10/31 01:12:55;;;;;;;19.73;16.25;;;;;;;0.96;86.35;100891.09;1666593;84;21730;-60
2021/10/31 01:16:04;;;;;;;22.90;14.60;;;;;;;0.92;85.67;100896.17;1671585;84;21632;-60
2021/10/31 01:18:56;;;;;;;24.45;16.25;;;;;;;0.97;85.17;100891.95;1664754;84;21483;-60
2021/10/31 01:21:54;;;;;;;30.27;18.25;;;;;;;1.01;84.46;100886.40;1674913;84;21515;-60
2021/10/31 01:24:47;;;;;;;20.88;17.42;;;;;;;0.92;84.42;100883.22;1665058;84;21520;-59
2021/10/31 01:27:41;;;;;;;20.62;16.73;;;;;;;0.82;84.20;100886.09;1668042;84;22128;-60
2021/10/31 01:30:41;;;;;;;17.48;14.75;;;;;;;0.76;84.15;100884.70;1663047;84;21049;-60
2021/10/31 01:33:39;;;;;;;17.85;14.58;;;;;;;0.83;84.01;100883.06;1659666;84;21582;-59
2021/10/31 01:36:23;;;;;;;19.67;16.27;;;;;;;0.97;83.55;100882.88;1672768;84;21535;-59
2021/10/31 01:39:31;;;;;;;19.67;16.17;;;;;;;0.93;83.15;100881.95;1672470;83;21544;-59
2021/10/31 01:42:09;;;;;;;20.70;16.57;;;;;;;0.89;83.06;100876.72;1659707;84;22021;-60
2021/10/31 01:45:01;;;;;;;19.80;15.45;;;;;;;0.83;82.98;100874.00;1666319;84;21610;-59
2021/10/31 01:47:39;;;;;;;18.10;15.15;;;;;;;0.80;83.09;100869.66;1671123;84;21631;-60
2021/10/31 01:50:34;;;;;;;22.25;17.40;;;;;;;0.92;83.19;100871.57;1665635;84;21684;-59
2021/10/31 01:53:33;;;;;;;23.18;17.27;;;;;;;1.02;82.93;100861.82;1675064;84;21584;-59
2021/10/31 01:56:11;;;;;;;21.73;17.20;;;;;;;1.03;83.14;100863.55;1712206;82;22140;-59
2021/10/31 01:58:53;;;;;;;26.07;18.32;;;;;;;1.03;83.11;100866.14;1707498;82;21860;-60
2021/10/31 02:01:21;;;;;;;21.50;16.87;;;;;;;1.04;83.45;100860.55;1708672;82;21587;-60
2021/10/31 02:03:47;;;;;;;22.93;17.42;;;;;;;1.05;83.49;100865.73;1718617;82;21578;-60
2021/10/31 02:06:14;;;;;;;25.50;17.87;;;;;;;1.19;83.15;100863.77;1725547;82;21112;-60
2021/10/31 02:08:41;;;;;;;23.07;18.17;;;;;;;1.28;82.91;100855.73;1707827;82;21898;-60
2021/10/31 02:11:09;;;;;;;23.73;18.27;;;;;;;1.28;82.98;100854.45;1697531;82;21058;-60
2021/10/31 02:13:35;;;;;;;23.25;18.37;;;;;;;1.27;82.90;100853.12;1717338;81;21542;-60
2021/10/31 02:16:03;;;;;;;25.10;19.23;;;;;;;1.26;82.99;100854.84;1705528;82;21507;-60
2021/10/31 02:18:29;;;;;;;21.70;17.70;;;;;;;1.24;83.11;100860.41;1709003;82;21488;-60
2021/10/31 02:20:58;;;;;;;23.65;17.45;;;;;;;1.31;83.10;100854.47;1719523;82;21594;-60
2021/10/31 02:23:25;;;;;;;28.10;19.45;;;;;;;1.45;82.68;100854.68;1708088;82;21414;-60
2021/10/31 02:25:51;;;;;;;22.90;17.97;;;;;;;1.46;82.54;100855.55;1706352;82;21479;-60
2021/10/31 02:28:18;;;;;;;24.00;17.50;;;;;;;1.39;82.21;100857.59;1715729;82;21440;-60
2021/10/31 02:30:44;;;;;;;21.80;17.60;;;;;;;1.28;81.85;100854.45;1713222;82;21444;-59
2021/10/31 02:33:11;;;;;;;19.82;16.95;;;;;;;1.22;81.55;100860.80;1706025;82;21535;-60
2021/10/31 02:35:39;;;;;;;23.83;16.27;;;;;;;1.14;81.36;100861.13;1708556;82;21130;-60
2021/10/31 02:38:07;;;;;;;18.40;15.88;;;;;;;1.15;81.22;100852.09;1703883;82;21514;-60
2021/10/31 02:40:37;;;;;;;20.72;17.42;;;;;;;1.30;81.13;100853.14;1717909;82;21528;-60
2021/10/31 02:43:05;;;;;;;20.25;17.85;;;;;;;1.31;81.25;100852.31;1702220;82;21455;-60
2021/10/31 02:45:33;;;;;;;24.60;18.07;;;;;;;1.28;81.35;100857.44;1712699;82;22165;-60
2021/10/31 02:48:04;;;;;;;25.82;19.48;;;;;;;1.25;81.58;100856.12;1715229;82;21582;-60
2021/10/31 02:50:35;;;;;;;23.85;18.30;;;;;;;1.24;81.74;100851.33;1711404;82;21511;-59
2021/10/31 02:53:11;;;;;;;20.12;16.48;;;;;;;1.24;81.74;100860.41;1705799;82;21474;-59
2021/10/31 02:55:55;;;;;;;22.65;16.93;;;;;;;1.30;81.69;100859.22;1707179;82;21539;-59
2021/10/31 02:58:40;;;;;;;22.17;17.25;;;;;;;1.46;81.63;100858.13;1702273;82;22114;-59
2021/10/31 03:01:07;;;;;;;21.50;17.87;;;;;;;1.45;81.57;100848.60;1643285;85;21495;-59
2021/10/31 03:03:35;;;;;;;18.30;16.40;;;;;;;1.40;81.45;100852.44;1715795;82;21575;-59
2021/10/31 03:06:03;;;;;;;18.98;15.20;;;;;;;1.34;81.38;100847.18;1720637;81;21487;-59
2021/10/31 03:08:31;;;;;;;17.82;14.45;;;;;;;1.23;80.64;100851.34;1715802;82;21665;-59
2021/10/31 03:11:02;;;;;;;14.83;13.22;;;;;;;1.08;80.35;100852.84;1717440;81;21476;-59
2021/10/31 03:13:29;;;;;;;17.00;14.63;;;;;;;1.04;80.11;100854.95;1708884;80;21476;-60
2021/10/31 03:15:56;;;;;;;21.35;17.45;;;;;;;1.10;79.67;100848.55;1713862;82;21574;-59
2021/10/31 03:18:23;;;;;;;17.60;15.63;;;;;;;1.05;80.03;100842.42;1728766;82;21553;-60
2021/10/31 03:20:49;;;;;;;20.88;17.07;;;;;;;0.99;80.54;100842.77;1718560;82;21501;-62
2021/10/31 03:23:16;;;;;;;21.40;16.87;;;;;;;0.92;80.85;100845.27;1723018;80;21989;-60
2021/10/31 03:25:44;;;;;;;23.25;17.32;;;;;;;0.87;81.00;100844.75;1711642;82;21534;-60
2021/10/31 03:28:10;;;;;;;18.62;14.28;;;;;;;0.84;80.99;100851.16;1721882;80;21629;-61
2021/10/31 03:30:37;;;;;;;20.30;15.03;;;;;;;0.87;80.79;100847.34;1714483;82;21515;-60
2021/10/31 03:33:04;;;;;;;18.80;15.08;;;;;;;0.96;80.47;100845.76;1711443;82;21514;-61
2021/10/31 03:35:32;;;;;;;18.82;16.62;;;;;;;0.96;80.65;100843.57;1725344;82;21842;-61
2021/10/31 03:37:59;;;;;;;20.80;16.97;;;;;;;0.93;80.63;100842.25;1723376;82;21539;-60
2021/10/31 03:40:26;;;;;;;29.97;18.90;;;;;;;0.93;80.75;100847.43;1725979;80;21478;-59
2021/10/31 03:42:52;;;;;;;21.90;18.10;;;;;;;0.90;80.97;100842.19;1711547;82;21551;-60
2021/10/31 03:45:19;;;;;;;20.37;15.55;;;;;;;0.87;80.93;100852.09;1720701;82;21454;-60
2021/10/31 03:47:48;;;;;;;22.50;17.52;;;;;;;0.89;80.91;100846.50;1720427;80;21790;-60
2021/10/31 03:50:17;;;;;;;23.47;18.07;;;;;;;1.00;80.69;100844.49;1713310;82;21519;-60
2021/10/31 03:52:44;;;;;;;22.37;17.82;;;;;;;0.98;80.88;100841.91;1710064;80;21591;-60
2021/10/31 03:55:12;;;;;;;21.73;18.15;;;;;;;0.93;81.08;100837.07;1714601;82;21492;-61
2021/10/31 03:57:38;;;;;;;24.27;18.52;;;;;;;0.89;81.10;100836.58;1714246;80;21506;-60
2021/10/31 04:00:07;;;;;;;24.77;18.20;;;;;;;0.86;81.14;100842.56;1725519;82;21791;-61
2021/10/31 04:02:38;;;;;;;20.68;15.50;;;;;;;0.82;81.29;100837.33;1718079;82;21514;-61
2021/10/31 04:05:06;;;;;;;21.37;16.45;;;;;;;0.86;81.53;100838.67;1736000;82;21531;-60
2021/10/31 04:07:33;;;;;;;21.30;16.48;;;;;;;0.96;81.05;100831.52;1729002;80;21091;-61
2021/10/31 04:10:04;;;;;;;19.50;17.00;;;;;;;0.92;81.00;100832.33;1716853;82;21476;-60
2021/10/31 04:12:32;;;;;;;19.40;15.60;;;;;;;0.87;81.17;100836.55;1725696;82;21795;-60
2021/10/31 04:14:59;;;;;;;24.95;17.45;;;;;;;0.83;81.26;100825.70;1735604;80;21502;-60
2021/10/31 04:17:25;;;;;;;24.23;18.12;;;;;;;0.81;81.23;100826.50;1713322;82;21521;-60
2021/10/31 04:19:52;;;;;;;17.30;14.15;;;;;;;0.76;81.08;100823.42;1728237;82;21448;-60
2021/10/31 04:22:19;;;;;;;17.92;15.43;;;;;;;0.77;80.94;100817.41;1727439;81;21569;-60
2021/10/31 04:24:45;;;;;;;19.55;16.20;;;;;;;0.89;80.72;100818.45;1721434;82;21863;-60
2021/10/31 04:27:12;;;;;;;20.97;16.30;;;;;;;0.89;80.74;100814.56;1721398;82;21609;-60
2021/10/31 04:29:39;;;;;;;20.25;17.37;;;;;;;0.87;80.65;100813.67;1721608;82;21515;-60
2021/10/31 04:32:07;;;;;;;24.07;18.20;;;;;;;0.84;80.75;100810.59;1712945;82;21542;-60
2021/10/31 04:34:33;;;;;;;24.20;18.07;;;;;;;0.82;80.60;100808.41;1713918;82;21427;-60
2021/10/31 04:37:01;;;;;;;21.50;16.10;;;;;;;0.80;80.61;100802.34;1727105;82;21832;-60
2021/10/31 04:39:28;;;;;;;22.35;16.75;;;;;;;0.85;80.45;100804.98;1725057;82;21596;-59
2021/10/31 04:42:01;;;;;;;22.32;18.57;;;;;;;1.00;80.30;100796.17;1720181;82;21631;-61
2021/10/31 04:44:23;;;;;;;24.37;18.02;;;;;;;1.02;80.18;100800.06;1716734;82;21484;-60
2021/10/31 04:46:49;;;;;;;28.32;18.67;;;;;;;0.97;80.25;100800.00;1718250;82;21488;-60
2021/10/31 04:49:16;;;;;;;25.00;18.30;;;;;;;0.93;80.30;100809.87;1725212;82;22035;-60
2021/10/31 04:51:42;;;;;;;28.20;19.67;;;;;;;0.89;80.45;100805.08;1716342;81;21385;-60
2021/10/31 04:54:09;;;;;;;22.65;17.35;;;;;;;0.88;80.64;100807.20;1724334;82;21473;-60
2021/10/31 04:56:36;;;;;;;25.45;18.85;;;;;;;0.95;80.43;100810.77;1720724;82;21508;-60
2021/10/31 04:59:03;;;;;;;25.90;18.23;;;;;;;1.07;80.14;100799.28;1723505;80;21426;-60
2021/10/31 05:01:30;;;;;;;24.82;18.73;;;;;;;1.06;80.16;100800.58;1723999;82;21785;-60
2021/10/31 05:03:57;;;;;;;24.92;18.73;;;;;;;1.02;80.38;100802.65;1726936;82;21510;-60
2021/10/31 05:06:24;;;;;;;25.65;20.05;;;;;;;1.01;80.43;100809.98;1710299;82;21445;-60
2021/10/31 05:08:50;;;;;;;25.23;19.67;;;;;;;0.99;80.59;100807.80;1735243;82;21559;-60
2021/10/31 05:11:17;;;;;;;24.47;16.80;;;;;;;0.97;80.82;100808.64;1718966;82;21549;-60
2021/10/31 05:13:45;;;;;;;26.55;19.20;;;;;;;1.01;80.86;100806.97;1714685;82;21747;-60
2021/10/31 05:16:12;;;;;;;26.68;20.08;;;;;;;1.16;80.68;100811.06;1710336;80;21649;-60
2021/10/31 05:18:38;;;;;;;29.50;20.12;;;;;;;1.21;80.61;100815.47;1726236;82;21557;-60
2021/10/31 05:21:06;;;;;;;24.05;18.90;;;;;;;1.19;80.86;100815.44;1722608;82;21558;-60
2021/10/31 05:23:32;;;;;;;29.18;20.08;;;;;;;1.21;81.12;100815.47;1720351;82;21425;-60
2021/10/31 05:25:59;;;;;;;28.05;20.60;;;;;;;1.21;81.17;100815.03;1710788;82;21775;-60
2021/10/31 05:28:26;;;;;;;23.85;16.90;;;;;;;1.22;81.17;100811.58;1714997;82;21584;-60
2021/10/31 05:30:53;;;;;;;21.20;17.60;;;;;;;1.29;81.04;100813.84;1722098;80;21427;-60
2021/10/31 05:33:21;;;;;;;26.83;18.47;;;;;;;1.43;80.63;100812.32;1723808;82;21520;-61
2021/10/31 05:35:51;;;;;;;24.75;20.05;;;;;;;1.47;80.87;100812.80;1725992;80;21894;-60
2021/10/31 05:38:20;;;;;;;25.27;19.90;;;;;;;1.51;81.37;100814.58;1710500;82;22282;-61
2021/10/31 05:40:48;;;;;;;31.00;21.05;;;;;;;1.52;81.58;100818.89;1733025;80;21088;-61
2021/10/31 05:43:15;;;;;;;24.60;18.60;;;;;;;1.52;81.66;100815.00;1715820;82;21625;-62
2021/10/31 05:45:42;;;;;;;26.23;18.87;;;;;;;1.60;81.82;100814.23;1721474;81;21606;-66
2021/10/31 05:48:10;;;;;;;26.23;19.65;;;;;;;1.80;81.80;100808.87;1722586;80;21472;-67
2021/10/31 05:50:37;;;;;;;23.73;18.82;;;;;;;1.89;82.05;100810.27;1721898;80;21746;-65
2021/10/31 05:53:03;;;;;;;27.05;19.27;;;;;;;1.90;82.27;100808.14;1728110;80;21612;-67
2021/10/31 05:55:30;;;;;;;25.60;20.03;;;;;;;1.91;82.22;100813.75;1667604;84;21546;-67
2021/10/31 05:57:57;;;;;;;25.57;19.23;;;;;;;1.92;82.36;100811.62;1680646;84;21593;-65
2021/10/31 06:00:24;;;;;;;23.15;17.60;;;;;;;2.00;82.65;100818.19;1677754;84;21543;-66
2021/10/31 06:02:50;;;;;;;24.87;18.45;;;;;;;2.15;82.33;100820.08;1681110;84;21817;-67
2021/10/31 06:05:17;;;;;;;24.75;18.50;;;;;;;2.17;81.96;100820.95;1689201;82;21557;-64
2021/10/31 06:07:46;;;;;;;23.70;18.05;;;;;;;2.13;81.84;100821.34;1672318;84;21635;-66
2021/10/31 06:10:12;;;;;;;24.05;18.70;;;;;;;2.13;82.01;100827.84;1678094;84;21452;-67
2021/10/31 06:12:44;;;;;;;26.42;19.15;;;;;;;2.16;82.34;100828.28;1664007;84;21567;-67
2021/10/31 06:15:14;;;;;;;27.55;19.17;;;;;;;2.23;82.84;100829.23;1690625;82;21528;-67
2021/10/31 06:17:41;;;;;;;25.20;18.82;;;;;;;2.40;83.29;100835.89;1671254;84;21527;-67
2021/10/31 06:20:10;;;;;;;24.85;19.57;;;;;;;2.59;83.01;100832.59;1678356;84;21465;-67
2021/10/31 06:22:37;;;;;;;24.07;19.07;;;;;;;2.64;82.96;100828.75;1720657;80;21533;-69
2021/10/31 06:25:07;;;;;;;26.75;19.80;;;;;;;2.65;83.05;100827.88;1707492;82;21564;-67
2021/10/31 06:27:34;;;;;;;30.15;19.98;;;;;;;2.70;83.38;100830.09;1712846;82;21831;-66
2021/10/31 06:30:01;;;;;;;25.82;18.67;;;;;;;2.76;83.64;100834.03;1713754;82;21491;-67
2021/10/31 06:32:29;;;;;;;23.95;19.73;;;;;;;2.88;83.56;100831.55;1719593;82;21608;-67
2021/10/31 06:34:56;;;;;;;28.77;19.67;;;;;;;3.08;83.61;100831.67;1715370;80;21438;-66
2021/10/31 06:37:23;;;;;;;29.97;20.27;;;;;;;3.16;83.39;100826.96;1720173;80;21057;-72
2021/10/31 06:39:49;;;;;;;29.32;21.05;;;;;;;3.17;83.50;100834.77;1722631;81;21740;-66
2021/10/31 06:42:16;;;;;;;29.87;21.68;;;;;;;3.18;83.89;100832.59;1713209;82;21559;-65
2021/10/31 06:44:43;;;;;;;24.20;18.87;;;;;;;3.20;84.05;100834.80;1715526;82;21526;-65
2021/10/31 06:47:09;;;;;;;22.20;18.82;;;;;;;3.33;84.16;100834.42;1728898;82;21566;-66
2021/10/31 06:49:41;;;;;;;29.57;20.97;;;;;;;3.50;83.69;100826.72;1709853;82;21070;-65
2021/10/31 06:52:08;;;;;;;26.68;20.62;;;;;;;3.55;83.89;100833.26;1712030;82;21738;-65
2021/10/31 06:54:35;;;;;;;31.52;20.80;;;;;;;3.58;84.34;100830.65;1721976;80;21479;-67
2021/10/31 06:57:02;;;;;;;26.75;21.65;;;;;;;3.63;84.81;100831.55;1711087;80;20990;-66
2021/10/31 06:59:31;;;;;;;22.98;18.48;;;;;;;3.73;85.11;100836.36;1716617;82;21553;-66
2021/10/31 07:01:57;;;;;;;23.35;18.90;;;;;;;3.90;85.37;100829.51;1719139;81;21423;-65
2021/10/31 07:04:24;;;;;;;24.52;19.10;;;;;;;4.15;85.28;100823.07;1719052;82;21646;-65
2021/10/31 07:06:51;;;;;;;27.58;19.55;;;;;;;4.32;85.19;100829.61;1715290;82;21562;-67
2021/10/31 07:09:18;;;;;;;25.45;19.00;;;;;;;4.41;85.29;100824.42;1727948;80;21513;-66
2021/10/31 07:11:46;;;;;;;24.55;20.12;;;;;;;4.51;85.37;100828.77;1719829;82;21590;-66
2021/10/31 07:14:13;;;;;;;25.88;19.17;;;;;;;4.60;85.45;100827.91;1722468;80;21491;-68
2021/10/31 07:16:41;;;;;;;26.07;18.75;;;;;;;4.83;85.19;100817.04;1717599;80;21648;-66
2021/10/31 07:19:07;;;;;;;22.45;18.32;;;;;;;5.08;84.94;100813.10;1720131;80;21542;-67
2021/10/31 07:21:34;;;;;;;25.02;19.70;;;;;;;5.24;85.01;100812.66;1715591;80;21632;-67
2021/10/31 07:24:01;;;;;;;23.90;19.60;;;;;;;5.37;85.06;100813.47;1720638;82;21625;-67
2021/10/31 07:26:28;;;;;;;22.27;18.10;;;;;;;5.50;84.88;100814.30;1722704;80;21407;-66
2021/10/31 07:28:57;;;;;;;22.13;19.10;;;;;;;5.68;84.53;100812.94;1715424;82;21506;-66
2021/10/31 07:31:27;;;;;;;24.57;18.50;;;;;;;5.95;84.61;100810.69;1719392;82;21029;-66
2021/10/31 07:33:55;;;;;;;22.65;18.70;;;;;;;6.09;84.25;100806.69;1717284;82;21501;-66
2021/10/31 07:36:22;;;;;;;25.88;20.77;;;;;;;6.18;83.92;100811.00;1717398;82;21684;-66
2021/10/31 07:38:49;;;;;;;24.12;19.10;;;;;;;6.28;83.90;100810.05;1719632;82;21129;-69
2021/10/31 07:41:16;;;;;;;21.60;17.77;;;;;;;6.36;83.82;100812.61;1715759;80;22077;-68
2021/10/31 07:43:42;;;;;;;29.35;17.90;;;;;;;6.49;83.47;100809.47;1715779;80;21545;-66
2021/10/31 07:46:09;;;;;;;21.30;17.17;;;;;;;6.78;82.74;100813.14;1715660;82;21513;-63
2021/10/31 07:48:36;;;;;;;26.02;16.80;;;;;;;7.04;81.70;100809.44;1721394;82;21508;-65
2021/10/31 07:51:03;;;;;;;19.95;16.25;;;;;;;7.04;81.70;100809.44;1717735;82;21550;-64
2021/10/31 07:53:30;;;;;;;19.23;15.70;;;;;;;7.14;81.33;100817.19;1723131;80;21474;-62
2021/10/31 07:55:57;;;;;;;17.50;14.45;;;;;;;7.27;80.23;100811.39;1713557;80;21483;-61
2021/10/31 07:58:25;;;;;;;17.62;13.45;;;;;;;7.47;79.61;100810.30;1724840;80;21696;-62
2021/10/31 08:00:52;;;;;;;16.62;13.30;;;;;;;7.73;78.87;100809.53;1717464;82;20979;-61
2021/10/31 08:03:19;;;;;;;16.60;12.13;;;;;;;7.92;76.92;100811.92;1713955;80;21485;-61
2021/10/31 08:05:48;;;;;;;13.13;11.53;;;;;;;8.05;76.35;100810.87;1730134;82;21840;-62
2021/10/31 08:08:17;;;;;;;14.75;11.30;;;;;;;8.17;75.41;100815.06;1710475;82;21019;-61
2021/10/31 08:10:47;;;;;;;15.03;10.53;;;;;;;8.33;74.77;100817.03;1720789;82;21585;-62
2021/10/31 08:13:25;;;;;;;18.30;10.60;;;;;;;8.47;73.70;100816.39;1711486;82;21574;-62
2021/10/31 08:15:54;;;;;;;10.80;9.38;;;;;;;8.65;72.86;100810.01;1734217;81;21431;-61
2021/10/31 08:18:21;;;;;;;14.30;11.45;;;;;;;8.92;71.99;100805.19;1728058;80;22012;-62
2021/10/31 08:20:47;;;;;;;12.68;10.18;;;;;;;9.05;71.42;100804.07;1735774;81;21034;-61
2021/10/31 08:23:17;;;;;;;10.63;9.53;;;;;;;9.16;70.27;100799.49;1737917;81;21593;-61
2021/10/31 08:28:08;;;;;;;12.73;10.35;;;;;;;9.29;68.73;100792.26;1786203;78;23217;-61
2021/10/31 08:30:33;;;;;;;11.90;9.90;;;;;;;9.30;68.28;100805.78;1753583;80;21495;-60
2021/10/31 08:33:06;;;;;;;15.43;10.28;;;;;;;9.39;67.92;100797.33;1762894;80;22101;-60
2021/10/31 08:35:30;;;;;;;11.90;10.68;;;;;;;9.48;67.52;100800.64;1760049;80;21023;-60
2021/10/31 08:37:56;;;;;;;15.07;9.57;;;;;;;9.58;67.59;100799.14;1760910;80;21574;-61
2021/10/31 08:40:24;;;;;;;14.33;9.40;;;;;;;9.71;67.16;100798.84;1771401;80;21475;-60
2021/10/31 08:42:50;;;;;;;18.30;10.65;;;;;;;9.83;65.71;100795.12;1759932;80;21046;-60
2021/10/31 08:45:17;;;;;;;16.15;10.80;;;;;;;9.92;65.35;100796.67;1766886;80;21748;-61
2021/10/31 08:47:44;;;;;;;14.60;10.05;;;;;;;9.99;64.42;100796.95;1758872;80;21486;-61
2021/10/31 08:50:10;;;;;;;14.47;10.93;;;;;;;10.04;64.40;100798.16;1760478;80;21546;-61
2021/10/31 08:52:39;;;;;;;16.42;11.03;;;;;;;10.12;64.50;100795.78;1751933;80;21518;-60
2021/10/31 08:55:07;;;;;;;15.50;10.82;;;;;;;10.25;64.18;100781.06;1763306;80;21483;-62
2021/10/31 08:57:34;;;;;;;11.50;10.15;;;;;;;10.33;64.13;100790.97;1760234;80;21769;-60
2021/10/31 09:00:00;;;;;;;16.85;10.55;;;;;;;10.41;63.26;100790.32;1765387;80;21518;-61
2021/10/31 09:02:28;;;;;;;13.72;10.30;;;;;;;10.49;63.25;100787.50;1757935;80;21535;-61
2021/10/31 09:04:55;;;;;;;14.13;9.48;;;;;;;10.63;62.82;100787.19;1767444;80;21490;-61
2021/10/31 09:07:22;;;;;;;13.50;9.38;;;;;;;10.74;61.54;100783.84;1760253;80;20942;-60
2021/10/31 09:09:49;;;;;;;12.30;9.50;;;;;;;10.83;61.04;100786.23;1761928;80;21604;-60
2021/10/31 09:12:16;;;;;;;11.20;8.58;;;;;;;10.90;60.61;100783.83;1761911;80;21068;-61
2021/10/31 09:14:42;;;;;;;17.35;9.25;;;;;;;10.98;60.49;100780.14;1758824;80;21487;-60
2021/10/31 09:17:11;;;;;;;14.65;9.28;;;;;;;11.00;60.04;100775.27;1755801;80;20999;-61
2021/10/31 09:19:39;;;;;;;17.07;9.48;;;;;;;11.10;58.77;100776.73;1759988;80;21490;-61
2021/10/31 09:22:06;;;;;;;18.37;8.63;;;;;;;11.25;59.32;100776.78;1756258;80;21747;-60
2021/10/31 09:24:33;;;;;;;14.35;7.80;;;;;;;11.38;58.10;100769.41;1760195;80;21479;-59
2021/10/31 09:27:00;;;;;;;15.72;8.38;;;;;;;11.53;57.63;100771.17;1744686;80;21515;-62
2021/10/31 09:29:29;;;;;;;11.83;7.57;;;;;;;11.65;57.06;100778.27;1749374;80;21606;-62
2021/10/31 09:31:58;;;;;;;10.58;7.95;;;;;;;11.76;57.24;100770.52;1752140;80;21473;-61
2021/10/31 09:34:27;;;;;;;18.87;8.35;;;;;;;11.92;56.65;100777.53;1699719;83;21870;-60
2021/10/31 09:36:56;;;;;;;15.18;8.70;;;;;;;12.11;55.86;100762.90;1741921;80;21465;-61
2021/10/31 09:39:23;;;;;;;11.00;8.28;;;;;;;12.27;55.88;100771.17;1755459;80;21495;-62
2021/10/31 09:41:50;;;;;;;14.58;8.90;;;;;;;12.42;55.07;100771.14;1749552;80;21065;-62
2021/10/31 09:44:30;;;;;;;15.97;7.63;;;;;;;12.60;55.18;100764.38;1745305;80;21610;-61
2021/10/31 09:46:52;;;;;;;13.83;8.75;;;;;;;12.76;53.86;100760.31;1750628;80;22040;-64
2021/10/31 09:49:20;;;;;;;16.95;10.50;;;;;;;12.85;53.26;100755.19;1756346;80;21078;-62
2021/10/31 09:51:49;;;;;;;10.45;7.75;;;;;;;12.90;53.55;100748.42;1747101;80;21077;-61
2021/10/31 09:54:16;;;;;;;10.93;8.38;;;;;;;12.96;52.98;100754.80;1749873;80;21486;-60
2021/10/31 09:56:43;;;;;;;14.38;8.28;;;;;;;12.96;52.24;100750.84;1741172;80;20955;-59
2021/10/31 09:59:16;;;;;;;10.27;7.70;;;;;;;12.95;52.23;100743.85;1753026;80;22103;-61
2021/10/31 10:04:35;;;;;;;19.32;8.88;;;;;;;12.97;52.21;100738.91;1742777;80;21543;-61
2021/10/31 10:07:05;;;;;;;13.15;8.25;;;;;;;13.03;52.00;100737.83;1742229;80;21083;-61
2021/10/31 10:09:34;;;;;;;12.58;8.38;;;;;;;13.12;51.10;100737.97;1735494;80;21524;-60
2021/10/31 10:12:17;;;;;;;17.37;9.33;;;;;;;13.15;51.33;100733.45;1746745;80;22173;-61
2021/10/31 10:15:03;;;;;;;9.88;8.65;;;;;;;13.22;51.42;100734.06;1744804;80;21444;-61
2021/10/31 10:17:50;;;;;;;17.07;9.55;;;;;;;13.40;51.00;100729.47;1746720;80;21650;-60
2021/10/31 10:20:18;;;;;;;13.93;8.80;;;;;;;13.50;50.55;100730.45;1751624;80;21597;-61
2021/10/31 10:22:45;;;;;;;15.32;9.28;;;;;;;13.50;50.25;100726.48;1745299;80;21479;-61
2021/10/31 10:25:13;;;;;;;15.78;9.80;;;;;;;13.50;50.24;100716.77;1744848;80;22046;-61
2021/10/31 10:27:51;;;;;;;15.55;8.63;;;;;;;13.40;50.56;100709.66;1730941;81;21562;-61
2021/10/31 10:30:21;;;;;;;13.58;8.20;;;;;;;13.30;50.72;100707.38;1747911;80;21514;-61
2021/10/31 10:32:55;;;;;;;14.53;8.65;;;;;;;13.28;50.90;100701.29;1743005;80;21517;-61
2021/10/31 10:35:27;;;;;;;11.53;7.62;;;;;;;13.31;50.82;100693.30;1743876;80;21542;-60
2021/10/31 10:37:54;;;;;;;10.15;7.85;;;;;;;13.44;50.87;100689.27;1736824;80;21792;-60
2021/10/31 10:40:27;;;;;;;12.82;7.80;;;;;;;13.55;50.72;100691.05;1749380;80;21538;-60
2021/10/31 10:42:58;;;;;;;12.70;7.97;;;;;;;13.60;50.30;100682.48;1755328;80;21006;-59
2021/10/31 10:45:31;;;;;;;9.35;7.55;;;;;;;13.65;50.11;100685.41;1755421;80;21613;-59
2021/10/31 10:48:02;;;;;;;18.98;9.70;;;;;;;13.69;50.15;100683.03;1744297;80;21504;-59
2021/10/31 10:50:38;;;;;;;11.05;8.63;;;;;;;13.72;49.92;100681.61;1744282;80;21781;-61
2021/10/31 10:53:05;;;;;;;11.30;8.53;;;;;;;13.70;49.84;100681.66;1684517;82;21591;-59
2021/10/31 10:55:34;;;;;;;12.00;8.80;;;;;;;13.67;49.62;100672.52;1752409;80;21508;-60
2021/10/31 10:58:14;;;;;;;11.95;8.25;;;;;;;13.63;49.79;100667.81;1749457;80;21051;-60
2021/10/31 11:00:43;;;;;;;10.75;8.35;;;;;;;13.59;49.92;100668.00;1756308;80;21630;-60
2021/10/31 11:03:15;;;;;;;14.25;8.68;;;;;;;13.66;49.77;100666.00;1746203;80;21430;-59
2021/10/31 11:05:46;;;;;;;12.23;8.85;;;;;;;13.73;49.42;100663.48;1745041;80;21405;-60
2021/10/31 11:08:20;;;;;;;12.45;8.93;;;;;;;13.77;49.43;100659.83;1749331;80;21523;-59
2021/10/31 11:10:58;;;;;;;13.62;8.43;;;;;;;13.83;49.37;100652.97;1746357;80;21508;-58
2021/10/31 11:13:27;;;;;;;12.50;7.53;;;;;;;13.83;49.32;100649.00;1734955;79;21488;-58
2021/10/31 11:15:56;;;;;;;13.50;8.68;;;;;;;13.88;49.17;100654.97;1741883;80;21794;-58
2021/10/31 11:18:22;;;;;;;16.30;8.78;;;;;;;13.88;49.08;100649.69;1743971;80;21589;-58
2021/10/31 11:20:50;;;;;;;9.93;7.87;;;;;;;13.90;48.96;100645.19;1745966;80;21549;-60
2021/10/31 11:23:21;;;;;;;10.82;8.65;;;;;;;13.95;48.52;100643.67;1741187;80;21606;-59
2021/10/31 11:25:48;;;;;;;12.73;8.05;;;;;;;13.95;48.60;100637.91;1749984;80;21504;-59
2021/10/31 11:28:16;;;;;;;8.70;7.75;;;;;;;14.01;48.68;100636.80;1746028;80;22159;-59
2021/10/31 11:30:47;;;;;;;11.10;8.78;;;;;;;14.12;48.60;100639.01;1739337;80;21018;-59
2021/10/31 11:33:14;;;;;;;10.85;8.28;;;;;;;14.18;48.02;100636.09;1746615;80;21002;-59